• Join FlightAware (Why Join?)
  • Login
  • US Flag 
02:30PM EDT


 

Airport Tracker/Info


-or-


 

Live Flight TrackerFlight Track Log ✈ FLG3862 ✈ 20-Apr-2013 ✈ KBTV - KDTW

Flight Track Log - Related Links

Times and Time Zones

All times are in EDT time to prevent confusion due to time zone crossing. See the FLG3862 flight status page for this flight to view local times or setup timezone preferences in your user account.

Time Position Orientation Groundspeed Altitude Reporting Facility
EDT Latitude Longitude Course Direction KTS MPH feet Rate Location/Type
12:52PM 44.4110 -73.4933 253° West  Level FlightAware Approximate
12:52PM 44.4931 -73.3508 257° West 234 269 8,900  Level Boston Center
12:53PM 44.3869 -73.6060 253° West  Level FlightAware Approximate
12:53PM 44.4758 -73.4408 255° West 240 276 11,100  Level Boston Center
12:54PM 44.3640 -73.7190 259° West  Level FlightAware Approximate
12:54PM 44.4603 -73.5308 256° West 252 290 12,100  Level Boston Center
12:55PM 44.3475 -73.8343 259° West  Level FlightAware Approximate
12:55PM 44.4361 -73.6553 255° West 289 333 13,900  Level Boston Center
12:56PM 44.3304 -73.9493 256° West  Level FlightAware Approximate
12:56PM 44.4139 -73.7769 256° West 307 353 15,800  Level Boston Center
12:57PM 44.3897 -73.8956 254° West 318 366 17,700 1,920 Climbing Boston Center
12:58PM 44.3672 -74.0111 255° West 318 366 19,700 1,920 Climbing Boston Center
12:59PM 44.3447 -74.1294 255° West 303 349 21,600 1,500 Climbing Boston Center
01:00PM 44.3267 -74.2336 256° West 303 349 23,100 1,380 Climbing Boston Center
01:01PM 44.2994 -74.3661 254° West 288 331 24,700 1,320 Climbing Boston Center
01:02PM 44.2789 -74.4669 254° West 278 320 25,800 1,020 Climbing Boston Center
01:03PM 44.2583 -74.5706 255° West 278 320 26,800 960 Climbing Boston Center
01:04PM 44.2397 -74.6742 256° West 283 326 27,800 600 Climbing Boston Center
01:05PM 44.2167 -74.7806 253° West 278 320 28,000 60 Climbing Boston Center
01:06PM 44.1956 -74.8928 255° West 285 328 28,000  Level Boston Center
01:07PM 44.1722 -75.0106 255° West 300 345 28,000  Level Boston Center
01:08PM 44.1486 -75.1311 255° West 314 361 28,000  Level Boston Center
01:09PM 44.1247 -75.2544 255° West 326 375 28,000  Level Boston Center
01:10PM 44.0967 -75.3803 253° West 331 381 28,000  Level Boston Center
01:11PM 44.0725 -75.5061 255° West 339 390 28,000  Level Boston Center
01:12PM 44.0442 -75.6319 253° West 339 390 28,000  Level Boston Center
01:13PM 44.0197 -75.7575 255° West 339 390 28,000  Level Boston Center
01:14PM 43.9931 -75.8831 254° West 339 390 28,000  Level Boston Center
01:15PM 43.9683 -76.0089 255° West 339 390 28,000  Level Boston Center
01:16PM 43.9561 -76.1292 262° West 344 396 28,000  Level Boston Center
01:17PM 43.9517 -76.2644 267° West 349 402 28,000  Level Boston Center
01:18PM 43.9492 -76.4000 269° West 349 402 28,000  Level Boston Center
01:19PM 43.9422 -76.5381 266° West 349 402 28,000  Level Boston Center
01:20PM 43.9333 -76.7000 266° West 360 414 28,000  Level Toronto Center
01:21PM 43.9167 -76.8167 259° West 360 414 28,000  Level Toronto Center
01:22PM 43.9167 -76.9667 270° West 360 414 28,000  Level Toronto Center
01:23PM 43.9167 -77.0833 270° West 360 414 28,000  Level Toronto Center
01:24PM 43.9000 -77.2333 261° West 360 414 28,000  Level Toronto Center
01:25PM 43.9167 -77.3833 279° West 370 426 28,000  Level Toronto Center
01:26PM 43.9000 -77.5333 261° West 370 426 28,000  Level Toronto Center
01:27PM 43.9000 -77.6667 270° West 370 426 28,000  Level Toronto Center
01:28PM 43.8833 -77.8000 260° West 370 426 28,000  Level Toronto Center
01:29PM 43.8833 -77.9500 270° West 370 426 28,000  Level Toronto Center
01:30PM 43.8667 -78.0833 260° West 370 426 28,000  Level Toronto Center
01:31PM 43.8667 -78.2167 270° West 370 426 28,000  Level Toronto Center
01:32PM 43.8500 -78.3833 262° West 380 437 28,000  Level Toronto Center
01:33PM 43.8667 -78.5167 280° West 380 437 28,000  Level Toronto Center
01:34PM 43.8500 -78.6667 261° West 380 437 28,000  Level Toronto Center
01:35PM 43.8500 -78.8000 270° West 380 437 28,000  Level Toronto Center
01:36PM 43.8500 -78.9667 270° West 380 437 28,000  Level Toronto Center
01:37PM 43.8000 -79.1000 243° Southwest 370 426 28,000  Level Toronto Center
01:38PM 43.7500 -79.2000 235° Southwest 370 426 28,000  Level Toronto Center
01:39PM 43.6833 -79.3167 232° Southwest 370 426 28,000  Level Toronto Center
01:40PM 43.6167 -79.4333 232° Southwest 370 426 28,000  Level Toronto Center
01:41PM 43.5500 -79.5167 222° Southwest 370 426 28,000  Level Toronto Center
01:42PM 43.4833 -79.6333 232° Southwest 370 426 28,000  Level Toronto Center
01:43PM 43.4167 -79.7500 232° Southwest 370 426 28,000  Level Toronto Center
01:44PM 43.3500 -79.8667 232° Southwest 370 426 28,000  Level Toronto Center
01:45PM 43.2667 -79.9500 216° Southwest 370 426 28,000  Level Toronto Center
01:46PM 43.2000 -80.0667 232° Southwest 380 437 28,000  Level Toronto Center
01:47PM 43.1333 -80.1833 232° Southwest 370 426 28,000  Level Toronto Center
01:48PM 43.0667 -80.3000 232° Southwest 380 437 28,000 -480 Level Toronto Center
01:49PM 43.0167 -80.4000 236° Southwest 380 437 27,100 -1,500 Descending Toronto Center
01:50PM 42.9833 -80.5500 253° West 360 414 25,000 -1,980 Descending Toronto Center
01:51PM 42.9667 -80.6500 257° West 350 403 23,200 -1,020 Descending Toronto Center
01:52PM 42.9333 -80.8000 253° West 340 391 23,000 -120 Descending Toronto Center
01:53PM 42.8833 -80.9000 236° Southwest 340 391 23,000  Level Toronto Center
01:54PM 42.8500 -81.0500 253° West 350 403 23,000  Level Toronto Center
01:54PM 42.8633 -81.1014 290° West 346 398 23,000  Level Cleveland Center
01:55PM 42.8336 -81.2286 252° West 346 398 23,000  Level Cleveland Center
01:56PM 42.8014 -81.3528 251° West 346 398 23,000  Level Cleveland Center
01:57PM 42.7736 -81.4769 253° West 346 398 23,000  Level Cleveland Center
01:58PM 42.7456 -81.5869 251° West 346 398 23,000  Level Cleveland Center
01:59PM 42.7153 -81.7136 252° West 346 398 23,000 -480 Level Cleveland Center
02:00PM 42.6806 -81.8456 250° West 346 398 22,100 -1,380 Descending Cleveland Center
02:01PM 42.6497 -81.9719 252° West 346 398 20,300 -1,800 Descending Cleveland Center
02:02PM 42.6192 -82.0956 251° West 346 398 18,500 -1,680 Descending Cleveland Center
02:03PM 42.5903 -82.2133 252° West 340 391 17,000 -1,620 Descending Cleveland Center
02:04PM 42.5658 -82.3225 253° West 320 368 15,400 -1,740 Descending Cleveland Center
02:05PM 42.5458 -82.4008 251° West 326 375 14,200 -1,800 Descending Cleveland Center
02:05PM 42.5328 -82.4456 248° West 335 386 13,500 -1,680 Descending Cleveland Center
02:06PM 42.5147 -82.5183 251° West 322 371 12,500 -1,440 Descending Cleveland Center
02:06PM 42.5017 -82.5575 246° West 329 379 12,100 -1,020 Descending Cleveland Center
02:07PM 42.4775 -82.6325 246° West 313 360 11,500 -1,020 Descending Cleveland Center
02:07PM 42.4642 -82.6631 239° Southwest 324 373 11,100 -1,320 Descending Cleveland Center
02:08PM 42.4464 -82.7244 249° West 282 325 10,300 -1,200 Descending Cleveland Center
02:08PM 42.4356 -82.7550 244° Southwest 302 348 9,900 -1,320 Descending Cleveland Center
02:09PM 42.4300 -82.8197 263° West 232 267 8,900 -1,500 Descending Cleveland Center
02:09PM 42.4275 -82.8419 261° West 257 296 8,400 -1,500 Descending Cleveland Center
02:10PM 42.4217 -82.9289 265° West 240 276 7,100 -780 Descending Cleveland Center
02:11PM 42.4158 -83.0047 264° West 244 281 7,100 -120 Level Cleveland Center
02:11PM 42.4133 -83.0244 260° West 247 284 7,000 -120 Descending Cleveland Center
02:12PM 42.4225 -83.0894 281° West 160 184 7,000 -780 Level Cleveland Center
02:13PM 42.4150 -83.1425 259° West 172 198 5,700 -1,440 Descending Cleveland Center
02:14PM 42.3864 -83.2061 239° Southwest 169 194 4,300 -1,080 Descending Cleveland Center
02:15PM 42.3439 -83.2464 215° Southwest 186 214 3,400 -900 Descending Cleveland Center